sensor_id;sensor_type;location;lat;lon;timestamp;P1;durP1;ratioP1;P2;durP2;ratioP2
15331;SDS011;7766;51.534;6.722;2022-07-03T00:00:40;2.07;;;1.60;;
15331;SDS011;7766;51.534;6.722;2022-07-03T00:01:41;3.23;;;1.73;;
15331;SDS011;7766;51.534;6.722;2022-07-03T00:02:42;2.40;;;1.77;;
15331;SDS011;7766;51.534;6.722;2022-07-03T00:03:43;2.93;;;1.57;;
15331;SDS011;7766;51.534;6.722;2022-07-03T00:04:43;2.43;;;1.60;;
15331;SDS011;7766;51.534;6.722;2022-07-03T00:05:44;2.67;;;1.30;;
15331;SDS011;7766;51.534;6.722;2022-07-03T00:06:45;4.37;;;1.50;;
15331;SDS011;7766;51.534;6.722;2022-07-03T00:07:47;2.87;;;1.63;;
15331;SDS011;7766;51.534;6.722;2022-07-03T00:08:48;1.70;;;1.60;;
15331;SDS011;7766;51.534;6.722;2022-07-03T00:09:49;1.40;;;1.30;;
15331;SDS011;7766;51.534;6.722;2022-07-03T00:10:50;4.83;;;1.70;;
15331;SDS011;7766;51.534;6.722;2022-07-03T00:11:51;2.70;;;1.60;;
15331;SDS011;7766;51.534;6.722;2022-07-03T00:12:52;2.63;;;1.50;;
15331;SDS011;7766;51.534;6.722;2022-07-03T00:13:52;5.33;;;1.70;;
15331;SDS011;7766;51.534;6.722;2022-07-03T00:14:53;4.13;;;1.70;;
15331;SDS011;7766;51.534;6.722;2022-07-03T00:15:54;3.17;;;1.60;;
15331;SDS011;7766;51.534;6.722;2022-07-03T00:16:55;3.70;;;1.80;;
15331;SDS011;7766;51.534;6.722;2022-07-03T00:17:56;3.00;;;1.53;;
15331;SDS011;7766;51.534;6.722;2022-07-03T00:18:57;3.23;;;1.90;;
15331;SDS011;7766;51.534;6.722;2022-07-03T00:19:58;2.50;;;1.60;;
15331;SDS011;7766;51.534;6.722;2022-07-03T00:21:05;1.93;;;1.40;;
15331;SDS011;7766;51.534;6.722;2022-07-03T00:22:10;3.57;;;1.63;;
15331;SDS011;7766;51.534;6.722;2022-07-03T00:23:13;4.43;;;1.43;;
15331;SDS011;7766;51.534;6.722;2022-07-03T00:24:19;2.90;;;1.70;;
15331;SDS011;7766;51.534;6.722;2022-07-03T00:25:20;2.33;;;1.70;;
15331;SDS011;7766;51.534;6.722;2022-07-03T00:26:22;3.57;;;1.70;;
15331;SDS011;7766;51.534;6.722;2022-07-03T00:27:24;2.37;;;1.33;;
15331;SDS011;7766;51.534;6.722;2022-07-03T00:28:25;3.30;;;1.70;;
15331;SDS011;7766;51.534;6.722;2022-07-03T00:29:27;3.10;;;1.40;;
15331;SDS011;7766;51.534;6.722;2022-07-03T00:30:30;1.70;;;1.40;;
15331;SDS011;7766;51.534;6.722;2022-07-03T00:31:32;2.27;;;1.77;;
15331;SDS011;7766;51.534;6.722;2022-07-03T00:32:33;3.83;;;1.57;;
15331;SDS011;7766;51.534;6.722;2022-07-03T00:33:34;3.97;;;1.70;;
15331;SDS011;7766;51.534;6.722;2022-07-03T00:34:37;2.00;;;1.80;;
15331;SDS011;7766;51.534;6.722;2022-07-03T00:35:38;1.63;;;1.37;;
15331;SDS011;7766;51.534;6.722;2022-07-03T00:36:40;1.67;;;1.50;;
15331;SDS011;7766;51.534;6.722;2022-07-03T00:37:41;2.00;;;1.33;;
15331;SDS011;7766;51.534;6.722;2022-07-03T00:38:42;2.90;;;1.50;;
15331;SDS011;7766;51.534;6.722;2022-07-03T00:39:44;2.07;;;1.73;;
15331;SDS011;7766;51.534;6.722;2022-07-03T00:40:45;3.40;;;1.50;;
15331;SDS011;7766;51.534;6.722;2022-07-03T00:41:46;5.13;;;2.00;;
15331;SDS011;7766;51.534;6.722;2022-07-03T00:42:59;2.93;;;1.40;;
15331;SDS011;7766;51.534;6.722;2022-07-03T00:44:01;2.87;;;1.67;;
15331;SDS011;7766;51.534;6.722;2022-07-03T00:45:02;2.70;;;1.50;;
15331;SDS011;7766;51.534;6.722;2022-07-03T00:46:06;3.43;;;1.70;;
15331;SDS011;7766;51.534;6.722;2022-07-03T00:47:08;2.60;;;1.67;;
15331;SDS011;7766;51.534;6.722;2022-07-03T00:48:09;2.93;;;1.80;;
15331;SDS011;7766;51.534;6.722;2022-07-03T00:49:12;3.27;;;1.50;;
15331;SDS011;7766;51.534;6.722;2022-07-03T00:50:15;2.40;;;1.50;;
15331;SDS011;7766;51.534;6.722;2022-07-03T00:51:24;1.67;;;1.40;;
15331;SDS011;7766;51.534;6.722;2022-07-03T00:52:25;3.70;;;1.83;;
15331;SDS011;7766;51.534;6.722;2022-07-03T00:53:28;2.33;;;1.57;;
15331;SDS011;7766;51.534;6.722;2022-07-03T00:54:30;2.13;;;1.47;;
15331;SDS011;7766;51.534;6.722;2022-07-03T00:55:33;3.40;;;1.60;;
15331;SDS011;7766;51.534;6.722;2022-07-03T00:56:34;3.27;;;1.60;;
15331;SDS011;7766;51.534;6.722;2022-07-03T00:57:42;2.77;;;1.60;;
15331;SDS011;7766;51.534;6.722;2022-07-03T00:58:44;2.77;;;1.70;;
15331;SDS011;7766;51.534;6.722;2022-07-03T00:59:45;2.63;;;1.60;;
15331;SDS011;7766;51.534;6.722;2022-07-03T01:00:46;3.00;;;1.80;;
15331;SDS011;7766;51.534;6.722;2022-07-03T01:01:49;3.37;;;1.90;;
15331;SDS011;7766;51.534;6.722;2022-07-03T01:04:33;2.20;;;1.90;;
15331;SDS011;7766;51.534;6.722;2022-07-03T01:05:37;2.60;;;1.83;;
15331;SDS011;7766;51.534;6.722;2022-07-03T01:06:50;2.33;;;1.60;;
15331;SDS011;7766;51.534;6.722;2022-07-03T01:08:54;3.13;;;1.90;;
15331;SDS011;7766;51.534;6.722;2022-07-03T01:12:18;3.73;;;1.70;;
15331;SDS011;7766;51.534;6.722;2022-07-03T01:17:51;3.60;;;1.80;;
15331;SDS011;7766;51.534;6.722;2022-07-03T01:18:59;2.80;;;1.80;;
15331;SDS011;7766;51.534;6.722;2022-07-03T01:20:02;2.23;;;2.00;;
15331;SDS011;7766;51.534;6.722;2022-07-03T01:21:08;4.87;;;1.50;;
15331;SDS011;7766;51.534;6.722;2022-07-03T01:26:14;2.10;;;1.90;;
15331;SDS011;7766;51.534;6.722;2022-07-03T01:27:18;2.23;;;1.60;;
15331;SDS011;7766;51.534;6.722;2022-07-03T01:28:27;4.73;;;1.87;;
15331;SDS011;7766;51.534;6.722;2022-07-03T01:29:34;3.93;;;2.23;;
15331;SDS011;7766;51.534;6.722;2022-07-03T01:30:37;1.87;;;1.50;;
15331;SDS011;7766;51.534;6.722;2022-07-03T01:31:39;3.83;;;1.90;;
15331;SDS011;7766;51.534;6.722;2022-07-03T01:32:43;3.03;;;2.10;;
15331;SDS011;7766;51.534;6.722;2022-07-03T01:33:44;2.17;;;1.60;;
15331;SDS011;7766;51.534;6.722;2022-07-03T01:34:46;2.90;;;1.97;;
15331;SDS011;7766;51.534;6.722;2022-07-03T01:35:57;2.07;;;1.80;;
15331;SDS011;7766;51.534;6.722;2022-07-03T01:37:01;2.27;;;1.73;;
15331;SDS011;7766;51.534;6.722;2022-07-03T01:38:07;2.60;;;1.80;;
15331;SDS011;7766;51.534;6.722;2022-07-03T01:39:12;2.77;;;1.60;;
15331;SDS011;7766;51.534;6.722;2022-07-03T01:40:17;4.87;;;1.80;;
15331;SDS011;7766;51.534;6.722;2022-07-03T01:41:18;2.37;;;1.70;;
15331;SDS011;7766;51.534;6.722;2022-07-03T01:42:18;2.60;;;1.90;;
15331;SDS011;7766;51.534;6.722;2022-07-03T01:43:19;3.37;;;1.90;;
15331;SDS011;7766;51.534;6.722;2022-07-03T01:44:24;3.37;;;1.87;;
15331;SDS011;7766;51.534;6.722;2022-07-03T01:45:27;2.27;;;1.80;;
15331;SDS011;7766;51.534;6.722;2022-07-03T01:46:29;2.90;;;1.70;;
15331;SDS011;7766;51.534;6.722;2022-07-03T01:47:31;4.97;;;2.13;;
15331;SDS011;7766;51.534;6.722;2022-07-03T01:48:34;3.47;;;1.90;;
15331;SDS011;7766;51.534;6.722;2022-07-03T01:49:35;1.90;;;1.67;;
15331;SDS011;7766;51.534;6.722;2022-07-03T01:50:38;3.47;;;1.70;;
15331;SDS011;7766;51.534;6.722;2022-07-03T01:51:41;3.13;;;1.90;;
15331;SDS011;7766;51.534;6.722;2022-07-03T01:52:43;2.73;;;1.50;;
15331;SDS011;7766;51.534;6.722;2022-07-03T01:53:49;3.03;;;1.83;;
15331;SDS011;7766;51.534;6.722;2022-07-03T01:54:51;1.93;;;1.73;;
15331;SDS011;7766;51.534;6.722;2022-07-03T01:55:54;2.50;;;1.70;;
15331;SDS011;7766;51.534;6.722;2022-07-03T01:56:56;2.70;;;1.97;;
15331;SDS011;7766;51.534;6.722;2022-07-03T01:57:58;4.57;;;1.80;;
15331;SDS011;7766;51.534;6.722;2022-07-03T01:58:59;3.27;;;2.10;;
15331;SDS011;7766;51.534;6.722;2022-07-03T02:00:00;1.87;;;1.63;;
15331;SDS011;7766;51.534;6.722;2022-07-03T02:03:01;3.63;;;1.57;;
15331;SDS011;7766;51.534;6.722;2022-07-03T02:05:07;4.37;;;1.90;;
15331;SDS011;7766;51.534;6.722;2022-07-03T02:06:11;2.87;;;1.70;;
15331;SDS011;7766;51.534;6.722;2022-07-03T02:07:35;2.00;;;1.50;;
15331;SDS011;7766;51.534;6.722;2022-07-03T02:08:50;3.80;;;1.50;;
15331;SDS011;7766;51.534;6.722;2022-07-03T02:09:57;2.53;;;1.63;;
15331;SDS011;7766;51.534;6.722;2022-07-03T02:12:13;4.43;;;1.37;;
15331;SDS011;7766;51.534;6.722;2022-07-03T02:13:19;2.83;;;1.50;;
15331;SDS011;7766;51.534;6.722;2022-07-03T02:14:23;4.27;;;1.90;;
15331;SDS011;7766;51.534;6.722;2022-07-03T02:15:28;3.33;;;1.60;;
15331;SDS011;7766;51.534;6.722;2022-07-03T02:16:29;3.47;;;2.00;;
15331;SDS011;7766;51.534;6.722;2022-07-03T02:17:37;2.90;;;1.67;;
15331;SDS011;7766;51.534;6.722;2022-07-03T02:18:42;4.33;;;2.07;;
15331;SDS011;7766;51.534;6.722;2022-07-03T02:19:53;2.90;;;1.67;;
15331;SDS011;7766;51.534;6.722;2022-07-03T02:20:59;3.03;;;1.67;;
15331;SDS011;7766;51.534;6.722;2022-07-03T02:22:03;3.30;;;1.57;;
15331;SDS011;7766;51.534;6.722;2022-07-03T02:23:08;5.47;;;1.80;;
15331;SDS011;7766;51.534;6.722;2022-07-03T02:24:19;3.23;;;1.60;;
15331;SDS011;7766;51.534;6.722;2022-07-03T02:25:22;1.97;;;1.63;;
15331;SDS011;7766;51.534;6.722;2022-07-03T02:26:25;4.30;;;1.60;;
15331;SDS011;7766;51.534;6.722;2022-07-03T02:27:28;2.60;;;1.30;;
15331;SDS011;7766;51.534;6.722;2022-07-03T02:28:34;2.10;;;1.60;;
15331;SDS011;7766;51.534;6.722;2022-07-03T02:29:46;2.33;;;1.43;;
15331;SDS011;7766;51.534;6.722;2022-07-03T02:30:48;2.93;;;1.70;;
15331;SDS011;7766;51.534;6.722;2022-07-03T02:31:54;3.27;;;1.70;;
15331;SDS011;7766;51.534;6.722;2022-07-03T02:32:59;2.83;;;1.50;;
15331;SDS011;7766;51.534;6.722;2022-07-03T02:34:01;2.40;;;1.53;;
15331;SDS011;7766;51.534;6.722;2022-07-03T02:35:07;1.73;;;1.53;;
15331;SDS011;7766;51.534;6.722;2022-07-03T02:36:10;4.37;;;1.80;;
15331;SDS011;7766;51.534;6.722;2022-07-03T02:37:18;3.43;;;1.70;;
15331;SDS011;7766;51.534;6.722;2022-07-03T02:38:19;3.10;;;1.63;;
15331;SDS011;7766;51.534;6.722;2022-07-03T02:39:24;1.97;;;1.60;;
15331;SDS011;7766;51.534;6.722;2022-07-03T02:40:28;3.07;;;1.67;;
15331;SDS011;7766;51.534;6.722;2022-07-03T02:41:39;2.37;;;1.57;;
15331;SDS011;7766;51.534;6.722;2022-07-03T02:42:45;2.13;;;1.73;;
15331;SDS011;7766;51.534;6.722;2022-07-03T02:44:46;4.67;;;1.73;;
15331;SDS011;7766;51.534;6.722;2022-07-03T02:46:04;2.77;;;1.83;;
15331;SDS011;7766;51.534;6.722;2022-07-03T02:48:35;2.70;;;2.00;;
15331;SDS011;7766;51.534;6.722;2022-07-03T02:50:46;3.77;;;1.90;;
15331;SDS011;7766;51.534;6.722;2022-07-03T02:52:08;2.27;;;1.80;;
15331;SDS011;7766;51.534;6.722;2022-07-03T02:53:14;2.87;;;1.87;;
15331;SDS011;7766;51.534;6.722;2022-07-03T02:54:28;4.50;;;1.70;;
15331;SDS011;7766;51.534;6.722;2022-07-03T02:55:45;3.03;;;1.87;;
15331;SDS011;7766;51.534;6.722;2022-07-03T02:56:56;3.60;;;1.97;;
15331;SDS011;7766;51.534;6.722;2022-07-03T03:00:39;2.10;;;1.60;;
15331;SDS011;7766;51.534;6.722;2022-07-03T03:01:47;2.30;;;1.63;;
15331;SDS011;7766;51.534;6.722;2022-07-03T03:02:55;2.83;;;1.90;;
15331;SDS011;7766;51.534;6.722;2022-07-03T03:04:02;3.93;;;1.60;;
15331;SDS011;7766;51.534;6.722;2022-07-03T03:06:24;1.93;;;1.73;;
15331;SDS011;7766;51.534;6.722;2022-07-03T03:07:29;2.77;;;1.57;;
15331;SDS011;7766;51.534;6.722;2022-07-03T03:08:51;3.10;;;1.73;;
15331;SDS011;7766;51.534;6.722;2022-07-03T03:09:53;2.30;;;1.50;;
15331;SDS011;7766;51.534;6.722;2022-07-03T03:10:54;2.07;;;1.43;;
15331;SDS011;7766;51.534;6.722;2022-07-03T03:11:59;4.50;;;1.90;;
15331;SDS011;7766;51.534;6.722;2022-07-03T03:13:02;1.73;;;1.50;;
15331;SDS011;7766;51.534;6.722;2022-07-03T03:14:05;4.20;;;1.63;;
15331;SDS011;7766;51.534;6.722;2022-07-03T03:15:10;2.00;;;1.60;;
15331;SDS011;7766;51.534;6.722;2022-07-03T03:16:12;1.87;;;1.47;;
15331;SDS011;7766;51.534;6.722;2022-07-03T03:17:18;1.93;;;1.50;;
15331;SDS011;7766;51.534;6.722;2022-07-03T03:18:20;2.13;;;1.60;;
15331;SDS011;7766;51.534;6.722;2022-07-03T03:19:23;1.93;;;1.70;;
15331;SDS011;7766;51.534;6.722;2022-07-03T03:20:26;3.13;;;1.83;;
15331;SDS011;7766;51.534;6.722;2022-07-03T03:21:27;2.10;;;1.70;;
15331;SDS011;7766;51.534;6.722;2022-07-03T03:23:46;3.27;;;1.60;;
15331;SDS011;7766;51.534;6.722;2022-07-03T03:24:52;1.83;;;1.60;;
15331;SDS011;7766;51.534;6.722;2022-07-03T03:25:53;2.60;;;1.70;;
15331;SDS011;7766;51.534;6.722;2022-07-03T03:26:54;4.03;;;1.70;;
15331;SDS011;7766;51.534;6.722;2022-07-03T03:27:55;2.50;;;1.63;;
15331;SDS011;7766;51.534;6.722;2022-07-03T03:28:55;2.37;;;1.50;;
15331;SDS011;7766;51.534;6.722;2022-07-03T03:29:56;2.90;;;1.83;;
15331;SDS011;7766;51.534;6.722;2022-07-03T03:30:57;2.27;;;1.60;;
15331;SDS011;7766;51.534;6.722;2022-07-03T03:31:58;5.03;;;1.83;;
15331;SDS011;7766;51.534;6.722;2022-07-03T03:32:59;4.50;;;1.93;;
15331;SDS011;7766;51.534;6.722;2022-07-03T03:34:00;2.00;;;1.80;;
15331;SDS011;7766;51.534;6.722;2022-07-03T03:35:02;3.63;;;1.70;;
15331;SDS011;7766;51.534;6.722;2022-07-03T03:36:03;3.03;;;1.60;;
15331;SDS011;7766;51.534;6.722;2022-07-03T03:37:05;2.87;;;1.80;;
15331;SDS011;7766;51.534;6.722;2022-07-03T03:38:06;4.50;;;1.90;;
15331;SDS011;7766;51.534;6.722;2022-07-03T03:39:06;2.53;;;1.73;;
15331;SDS011;7766;51.534;6.722;2022-07-03T03:40:07;4.73;;;1.90;;
15331;SDS011;7766;51.534;6.722;2022-07-03T03:41:08;3.97;;;1.67;;
15331;SDS011;7766;51.534;6.722;2022-07-03T03:42:09;3.40;;;1.90;;
15331;SDS011;7766;51.534;6.722;2022-07-03T03:43:10;1.97;;;1.57;;
15331;SDS011;7766;51.534;6.722;2022-07-03T03:44:10;1.90;;;1.77;;
15331;SDS011;7766;51.534;6.722;2022-07-03T03:45:11;2.60;;;1.87;;
15331;SDS011;7766;51.534;6.722;2022-07-03T03:46:12;4.20;;;2.00;;
15331;SDS011;7766;51.534;6.722;2022-07-03T03:47:14;3.43;;;1.97;;
15331;SDS011;7766;51.534;6.722;2022-07-03T03:48:15;6.27;;;2.10;;
15331;SDS011;7766;51.534;6.722;2022-07-03T03:49:16;3.17;;;1.90;;
15331;SDS011;7766;51.534;6.722;2022-07-03T03:50:17;2.50;;;1.87;;
15331;SDS011;7766;51.534;6.722;2022-07-03T03:51:18;2.60;;;1.90;;
15331;SDS011;7766;51.534;6.722;2022-07-03T03:52:19;4.10;;;1.90;;
15331;SDS011;7766;51.534;6.722;2022-07-03T03:53:20;3.10;;;1.97;;
15331;SDS011;7766;51.534;6.722;2022-07-03T03:54:21;8.70;;;2.53;;
15331;SDS011;7766;51.534;6.722;2022-07-03T03:55:21;4.00;;;2.00;;
15331;SDS011;7766;51.534;6.722;2022-07-03T03:56:22;5.30;;;1.70;;
15331;SDS011;7766;51.534;6.722;2022-07-03T03:57:24;3.87;;;2.00;;
15331;SDS011;7766;51.534;6.722;2022-07-03T03:58:25;4.70;;;2.07;;
15331;SDS011;7766;51.534;6.722;2022-07-03T03:59:26;4.40;;;2.20;;
15331;SDS011;7766;51.534;6.722;2022-07-03T04:00:28;4.40;;;2.13;;
15331;SDS011;7766;51.534;6.722;2022-07-03T04:01:29;3.63;;;2.07;;
15331;SDS011;7766;51.534;6.722;2022-07-03T04:02:30;6.13;;;1.97;;
15331;SDS011;7766;51.534;6.722;2022-07-03T04:03:31;4.63;;;2.03;;
15331;SDS011;7766;51.534;6.722;2022-07-03T04:04:32;5.03;;;2.20;;
15331;SDS011;7766;51.534;6.722;2022-07-03T04:05:33;3.93;;;2.33;;
15331;SDS011;7766;51.534;6.722;2022-07-03T04:06:34;2.20;;;1.80;;
15331;SDS011;7766;51.534;6.722;2022-07-03T04:07:35;4.00;;;2.00;;
15331;SDS011;7766;51.534;6.722;2022-07-03T04:08:36;2.47;;;1.93;;
15331;SDS011;7766;51.534;6.722;2022-07-03T04:09:37;5.10;;;2.10;;
15331;SDS011;7766;51.534;6.722;2022-07-03T04:10:38;2.80;;;1.90;;
15331;SDS011;7766;51.534;6.722;2022-07-03T04:11:39;3.47;;;2.30;;
15331;SDS011;7766;51.534;6.722;2022-07-03T04:12:40;4.50;;;2.40;;
15331;SDS011;7766;51.534;6.722;2022-07-03T04:13:40;5.70;;;2.73;;
15331;SDS011;7766;51.534;6.722;2022-07-03T04:14:41;4.63;;;2.40;;
15331;SDS011;7766;51.534;6.722;2022-07-03T04:15:42;4.43;;;2.40;;
15331;SDS011;7766;51.534;6.722;2022-07-03T04:16:43;3.47;;;2.27;;
15331;SDS011;7766;51.534;6.722;2022-07-03T04:17:44;2.63;;;2.17;;
15331;SDS011;7766;51.534;6.722;2022-07-03T04:18:45;7.97;;;2.57;;
15331;SDS011;7766;51.534;6.722;2022-07-03T04:19:45;3.43;;;2.20;;
15331;SDS011;7766;51.534;6.722;2022-07-03T04:20:46;2.90;;;2.60;;
15331;SDS011;7766;51.534;6.722;2022-07-03T04:21:47;3.90;;;2.43;;
15331;SDS011;7766;51.534;6.722;2022-07-03T04:22:48;3.30;;;2.63;;
15331;SDS011;7766;51.534;6.722;2022-07-03T04:23:50;3.27;;;2.73;;
15331;SDS011;7766;51.534;6.722;2022-07-03T04:24:51;3.80;;;2.53;;
15331;SDS011;7766;51.534;6.722;2022-07-03T04:25:51;3.40;;;2.23;;
15331;SDS011;7766;51.534;6.722;2022-07-03T04:26:52;3.27;;;2.20;;
15331;SDS011;7766;51.534;6.722;2022-07-03T04:27:53;4.87;;;2.43;;
15331;SDS011;7766;51.534;6.722;2022-07-03T04:28:54;5.30;;;2.20;;
15331;SDS011;7766;51.534;6.722;2022-07-03T04:29:55;4.07;;;2.67;;
15331;SDS011;7766;51.534;6.722;2022-07-03T04:30:55;3.07;;;2.70;;
15331;SDS011;7766;51.534;6.722;2022-07-03T04:31:56;3.60;;;2.50;;
15331;SDS011;7766;51.534;6.722;2022-07-03T04:32:57;3.80;;;2.40;;
15331;SDS011;7766;51.534;6.722;2022-07-03T04:33:57;4.37;;;2.70;;
15331;SDS011;7766;51.534;6.722;2022-07-03T04:34:58;4.10;;;2.90;;
15331;SDS011;7766;51.534;6.722;2022-07-03T04:35:59;2.70;;;2.50;;
15331;SDS011;7766;51.534;6.722;2022-07-03T04:37:00;4.63;;;2.40;;
15331;SDS011;7766;51.534;6.722;2022-07-03T04:38:00;3.10;;;2.70;;
15331;SDS011;7766;51.534;6.722;2022-07-03T04:39:01;4.23;;;3.07;;
15331;SDS011;7766;51.534;6.722;2022-07-03T04:40:02;2.70;;;2.40;;
15331;SDS011;7766;51.534;6.722;2022-07-03T04:41:03;7.90;;;3.27;;
15331;SDS011;7766;51.534;6.722;2022-07-03T04:42:04;4.97;;;3.03;;
15331;SDS011;7766;51.534;6.722;2022-07-03T04:43:05;4.60;;;2.80;;
15331;SDS011;7766;51.534;6.722;2022-07-03T04:44:06;3.97;;;2.60;;
15331;SDS011;7766;51.534;6.722;2022-07-03T04:45:07;3.43;;;2.40;;
15331;SDS011;7766;51.534;6.722;2022-07-03T04:46:08;8.87;;;2.73;;
15331;SDS011;7766;51.534;6.722;2022-07-03T04:47:09;5.03;;;2.63;;
15331;SDS011;7766;51.534;6.722;2022-07-03T04:48:10;4.10;;;2.90;;
15331;SDS011;7766;51.534;6.722;2022-07-03T04:49:10;5.87;;;3.20;;
15331;SDS011;7766;51.534;6.722;2022-07-03T04:50:11;3.83;;;2.60;;
15331;SDS011;7766;51.534;6.722;2022-07-03T04:51:12;5.33;;;3.00;;
15331;SDS011;7766;51.534;6.722;2022-07-03T04:52:13;3.43;;;2.83;;
15331;SDS011;7766;51.534;6.722;2022-07-03T04:53:14;6.07;;;3.00;;
15331;SDS011;7766;51.534;6.722;2022-07-03T04:54:15;5.23;;;2.90;;
15331;SDS011;7766;51.534;6.722;2022-07-03T04:55:16;6.73;;;2.90;;
15331;SDS011;7766;51.534;6.722;2022-07-03T04:56:17;6.53;;;3.17;;
15331;SDS011;7766;51.534;6.722;2022-07-03T04:57:17;6.47;;;3.00;;
15331;SDS011;7766;51.534;6.722;2022-07-03T04:58:18;5.20;;;3.30;;
15331;SDS011;7766;51.534;6.722;2022-07-03T04:59:19;7.73;;;4.60;;
15331;SDS011;7766;51.534;6.722;2022-07-03T05:00:20;6.33;;;4.70;;
15331;SDS011;7766;51.534;6.722;2022-07-03T05:01:21;8.67;;;5.60;;
15331;SDS011;7766;51.534;6.722;2022-07-03T05:02:21;6.20;;;5.10;;
15331;SDS011;7766;51.534;6.722;2022-07-03T05:03:22;6.17;;;5.57;;
15331;SDS011;7766;51.534;6.722;2022-07-03T05:04:23;5.73;;;5.23;;
15331;SDS011;7766;51.534;6.722;2022-07-03T05:05:24;6.60;;;5.57;;
15331;SDS011;7766;51.534;6.722;2022-07-03T05:06:25;8.53;;;6.57;;
15331;SDS011;7766;51.534;6.722;2022-07-03T05:07:26;10.30;;;8.17;;
15331;SDS011;7766;51.534;6.722;2022-07-03T05:08:27;9.60;;;7.33;;
15331;SDS011;7766;51.534;6.722;2022-07-03T05:09:27;9.97;;;8.93;;
15331;SDS011;7766;51.534;6.722;2022-07-03T05:10:28;12.23;;;7.57;;
15331;SDS011;7766;51.534;6.722;2022-07-03T05:11:29;11.73;;;10.10;;
15331;SDS011;7766;51.534;6.722;2022-07-03T05:12:30;12.70;;;9.13;;
15331;SDS011;7766;51.534;6.722;2022-07-03T05:13:31;14.63;;;11.27;;
15331;SDS011;7766;51.534;6.722;2022-07-03T05:14:32;13.37;;;10.93;;
15331;SDS011;7766;51.534;6.722;2022-07-03T05:15:33;13.77;;;10.93;;
15331;SDS011;7766;51.534;6.722;2022-07-03T05:16:34;13.57;;;10.87;;
15331;SDS011;7766;51.534;6.722;2022-07-03T05:17:34;11.67;;;10.23;;
15331;SDS011;7766;51.534;6.722;2022-07-03T05:18:35;13.77;;;12.10;;
15331;SDS011;7766;51.534;6.722;2022-07-03T05:19:39;16.57;;;13.17;;
15331;SDS011;7766;51.534;6.722;2022-07-03T05:20:40;13.60;;;10.73;;
15331;SDS011;7766;51.534;6.722;2022-07-03T05:21:41;15.63;;;13.03;;
15331;SDS011;7766;51.534;6.722;2022-07-03T05:22:41;15.60;;;14.00;;
15331;SDS011;7766;51.534;6.722;2022-07-03T05:23:42;13.80;;;12.40;;
15331;SDS011;7766;51.534;6.722;2022-07-03T05:24:43;13.80;;;11.27;;
15331;SDS011;7766;51.534;6.722;2022-07-03T05:25:43;13.87;;;12.47;;
15331;SDS011;7766;51.534;6.722;2022-07-03T05:26:45;16.60;;;14.27;;
15331;SDS011;7766;51.534;6.722;2022-07-03T05:27:46;16.00;;;14.20;;
15331;SDS011;7766;51.534;6.722;2022-07-03T05:28:47;16.23;;;13.30;;
15331;SDS011;7766;51.534;6.722;2022-07-03T05:29:48;17.90;;;15.50;;
15331;SDS011;7766;51.534;6.722;2022-07-03T05:30:49;21.50;;;18.07;;
15331;SDS011;7766;51.534;6.722;2022-07-03T05:31:50;19.70;;;17.63;;
15331;SDS011;7766;51.534;6.722;2022-07-03T05:32:51;18.63;;;16.63;;
15331;SDS011;7766;51.534;6.722;2022-07-03T05:33:52;20.87;;;16.67;;
15331;SDS011;7766;51.534;6.722;2022-07-03T05:34:53;17.93;;;15.60;;
15331;SDS011;7766;51.534;6.722;2022-07-03T05:35:55;21.30;;;16.50;;
15331;SDS011;7766;51.534;6.722;2022-07-03T05:36:56;17.87;;;16.07;;
15331;SDS011;7766;51.534;6.722;2022-07-03T05:37:57;17.43;;;15.47;;
15331;SDS011;7766;51.534;6.722;2022-07-03T05:38:57;16.27;;;13.17;;
15331;SDS011;7766;51.534;6.722;2022-07-03T05:40:17;18.60;;;14.47;;
15331;SDS011;7766;51.534;6.722;2022-07-03T05:41:18;15.93;;;14.30;;
15331;SDS011;7766;51.534;6.722;2022-07-03T05:42:19;15.20;;;13.37;;
15331;SDS011;7766;51.534;6.722;2022-07-03T05:43:20;13.93;;;12.43;;
15331;SDS011;7766;51.534;6.722;2022-07-03T05:44:21;14.57;;;12.97;;
15331;SDS011;7766;51.534;6.722;2022-07-03T05:45:21;13.53;;;12.20;;
15331;SDS011;7766;51.534;6.722;2022-07-03T05:46:22;11.80;;;10.60;;
15331;SDS011;7766;51.534;6.722;2022-07-03T05:47:23;11.37;;;10.27;;
15331;SDS011;7766;51.534;6.722;2022-07-03T05:48:24;11.87;;;10.37;;
15331;SDS011;7766;51.534;6.722;2022-07-03T05:49:25;11.47;;;10.30;;
15331;SDS011;7766;51.534;6.722;2022-07-03T05:50:26;11.83;;;10.33;;
15331;SDS011;7766;51.534;6.722;2022-07-03T05:51:27;8.87;;;7.90;;
15331;SDS011;7766;51.534;6.722;2022-07-03T05:52:28;8.53;;;6.63;;
15331;SDS011;7766;51.534;6.722;2022-07-03T05:53:29;6.40;;;5.80;;
15331;SDS011;7766;51.534;6.722;2022-07-03T05:54:30;7.53;;;5.43;;
15331;SDS011;7766;51.534;6.722;2022-07-03T05:55:31;7.20;;;5.77;;
15331;SDS011;7766;51.534;6.722;2022-07-03T05:56:32;7.87;;;5.40;;
15331;SDS011;7766;51.534;6.722;2022-07-03T05:57:32;8.57;;;4.90;;
15331;SDS011;7766;51.534;6.722;2022-07-03T05:58:33;5.47;;;4.97;;
15331;SDS011;7766;51.534;6.722;2022-07-03T05:59:34;5.27;;;4.10;;
15331;SDS011;7766;51.534;6.722;2022-07-03T06:00:35;6.13;;;4.50;;
15331;SDS011;7766;51.534;6.722;2022-07-03T06:01:36;5.63;;;4.50;;
15331;SDS011;7766;51.534;6.722;2022-07-03T06:02:37;5.23;;;4.53;;
15331;SDS011;7766;51.534;6.722;2022-07-03T06:03:38;7.10;;;4.13;;
15331;SDS011;7766;51.534;6.722;2022-07-03T06:04:39;6.10;;;4.20;;
15331;SDS011;7766;51.534;6.722;2022-07-03T06:05:40;7.27;;;4.30;;
15331;SDS011;7766;51.534;6.722;2022-07-03T06:06:41;5.53;;;4.50;;
15331;SDS011;7766;51.534;6.722;2022-07-03T06:07:42;5.13;;;4.20;;
15331;SDS011;7766;51.534;6.722;2022-07-03T06:08:42;5.67;;;4.83;;
15331;SDS011;7766;51.534;6.722;2022-07-03T06:09:43;5.73;;;4.43;;
15331;SDS011;7766;51.534;6.722;2022-07-03T06:10:44;6.10;;;4.07;;
15331;SDS011;7766;51.534;6.722;2022-07-03T06:11:45;9.67;;;4.20;;
15331;SDS011;7766;51.534;6.722;2022-07-03T06:12:47;5.67;;;4.03;;
15331;SDS011;7766;51.534;6.722;2022-07-03T06:13:48;5.87;;;4.47;;
15331;SDS011;7766;51.534;6.722;2022-07-03T06:14:49;5.27;;;4.73;;
15331;SDS011;7766;51.534;6.722;2022-07-03T06:15:50;4.87;;;4.00;;
15331;SDS011;7766;51.534;6.722;2022-07-03T06:16:51;5.30;;;3.67;;
15331;SDS011;7766;51.534;6.722;2022-07-03T06:17:51;7.40;;;4.05;;
15331;SDS011;7766;51.534;6.722;2022-07-03T06:18:52;4.95;;;4.07;;
15331;SDS011;7766;51.534;6.722;2022-07-03T06:19:53;9.43;;;4.50;;
15331;SDS011;7766;51.534;6.722;2022-07-03T06:20:54;5.40;;;3.95;;
15331;SDS011;7766;51.534;6.722;2022-07-03T06:21:55;4.75;;;3.90;;
15331;SDS011;7766;51.534;6.722;2022-07-03T06:22:56;7.53;;;4.10;;
15331;SDS011;7766;51.534;6.722;2022-07-03T06:23:57;5.53;;;3.93;;
15331;SDS011;7766;51.534;6.722;2022-07-03T06:24:58;4.05;;;3.72;;
15331;SDS011;7766;51.534;6.722;2022-07-03T06:25:59;4.60;;;3.40;;
15331;SDS011;7766;51.534;6.722;2022-07-03T06:27:00;4.72;;;3.30;;
15331;SDS011;7766;51.534;6.722;2022-07-03T06:28:01;7.95;;;3.63;;
15331;SDS011;7766;51.534;6.722;2022-07-03T06:29:01;4.60;;;3.33;;
15331;SDS011;7766;51.534;6.722;2022-07-03T06:30:03;5.82;;;3.38;;
15331;SDS011;7766;51.534;6.722;2022-07-03T06:31:04;3.95;;;3.53;;
15331;SDS011;7766;51.534;6.722;2022-07-03T06:32:05;5.28;;;3.90;;
15331;SDS011;7766;51.534;6.722;2022-07-03T06:33:06;6.20;;;3.85;;
15331;SDS011;7766;51.534;6.722;2022-07-03T06:34:07;5.13;;;3.80;;
15331;SDS011;7766;51.534;6.722;2022-07-03T06:35:08;5.05;;;3.38;;
15331;SDS011;7766;51.534;6.722;2022-07-03T06:36:09;4.25;;;3.30;;
15331;SDS011;7766;51.534;6.722;2022-07-03T06:37:10;4.30;;;3.90;;
15331;SDS011;7766;51.534;6.722;2022-07-03T06:38:11;5.78;;;3.58;;
15331;SDS011;7766;51.534;6.722;2022-07-03T06:39:12;6.15;;;3.50;;
15331;SDS011;7766;51.534;6.722;2022-07-03T06:40:13;4.25;;;3.72;;
15331;SDS011;7766;51.534;6.722;2022-07-03T06:41:14;6.95;;;3.67;;
15331;SDS011;7766;51.534;6.722;2022-07-03T06:42:15;6.00;;;3.33;;
15331;SDS011;7766;51.534;6.722;2022-07-03T06:43:16;5.95;;;3.80;;
15331;SDS011;7766;51.534;6.722;2022-07-03T06:44:17;4.80;;;3.53;;
15331;SDS011;7766;51.534;6.722;2022-07-03T06:45:18;4.97;;;3.35;;
15331;SDS011;7766;51.534;6.722;2022-07-03T06:46:18;6.20;;;3.10;;
15331;SDS011;7766;51.534;6.722;2022-07-03T06:47:19;7.82;;;3.25;;